Startpagina
METAR-TAF:

METAR-TAF

Vliegvelden :

Wonderboom Airport

Pretoria, Zuid-Afrika

breedte: 25-39S, lengte: 028-13E, hoogte: 1248 m

Actueel weer

Dit bericht is 21 minuten geleden gemaakt, om 22:00 UTC
Wind 7 kt uit het zuidwesten
Temperatuur 12°C
Vochtigheid 16%
Druk 1022 hPa

METAR: FAWB 242200Z AUTO 22007KT //// // ////// 12/M13 Q1022

Tijdstip: 00:21 (22:21 UTC)

Verwachting

Dit bericht is 13 uur en het 21 minuten geleden gemaakt, om 09:00 UTC
Verwachting geldig van 24 om 10 UTC tot 24 om 18 UTC
Wind 3 kt uit variabele richting
Zicht 10 km of meer
geen wolken onder 1500 m en geen cumulonimbus
Wijzigt naar
van 24 om 10 UTC tot 24 om 12 UTC
Wind 10 kt uit het westen
Wijzigt naar
van 24 om 14 UTC tot 24 om 16 UTC
Wind 3 kt uit variabele richting

TAF: FAWB 240900Z 2410/2418 VRB03KT CAVOK TX25/2413Z TN14/2418Z BECMG 2410/2412 27010KT BECMG 2414/2416 VRB03KT

Waarnemingen en weersverwachtingen van meer dan 4000 vliegvelden (METAR en TAF).

De beschikbare stations zijn de gele en rode punten op de kaart.

Ga met uw muis naar het station om de naam te zien.

Klik dan om waarnemingen en weersverwachtingen te zien.

kaart wijzigen: klik op de groene knoppen met een zwart kruis om in te zoomen, op de groene knop met een streepje om uit te zoomen of op de groene pijlen voor aangrenzende kaarten.


METAR-TAF: